createdAt,value
2022-10-17T10:39:50.268Z,69.82
2022-10-17T10:40:50.250Z,69.12
2022-10-17T10:41:50.232Z,68.93
2022-10-17T10:42:50.224Z,69.66
2022-10-17T10:43:50.220Z,68.93
2022-10-17T10:44:50.204Z,69.12
2022-10-17T10:45:51.318Z,68.32
2022-10-17T10:46:51.321Z,68.49
2022-10-17T10:47:51.303Z,67.79
2022-10-17T10:48:51.313Z,68.19
2022-10-17T10:49:51.299Z,68.49
2022-10-17T10:50:51.251Z,68.79
2022-10-17T10:51:51.248Z,67.16
2022-10-17T10:52:51.243Z,67.26
2022-10-17T10:53:51.239Z,67.16
2022-10-17T10:54:51.221Z,67.06
2022-10-17T10:55:51.209Z,65.86
2022-10-17T10:56:53.342Z,66.96
2022-10-17T10:57:52.189Z,66.43
2022-10-17T10:58:51.184Z,66.93
2022-10-17T10:59:51.165Z,67.53
2022-10-17T11:00:51.209Z,66.93
2022-10-17T11:01:51.150Z,66.43
2022-10-17T11:02:51.182Z,64.43
2022-10-17T11:03:51.141Z,65.03
2022-10-17T11:04:51.116Z,64.76
2022-10-17T11:05:51.107Z,65.06
2022-10-17T11:06:51.107Z,64.76
2022-10-17T11:07:51.109Z,65.66
2022-10-17T11:08:51.092Z,65.96
2022-10-17T11:09:51.075Z,66.46
2022-10-17T11:10:51.067Z,65.76
2022-10-17T11:11:51.050Z,65.86
2022-10-17T11:12:51.043Z,65.66
2022-10-17T11:13:53.357Z,65.43
2022-10-17T11:14:51.027Z,66.23
2022-10-17T11:15:51.019Z,64.93
2022-10-17T11:16:51.007Z,65.43
2022-10-17T11:17:50.995Z,65.43
2022-10-17T11:18:50.999Z,64.83
2022-10-17T11:19:50.974Z,64.53
2022-10-17T11:20:50.967Z,64.96
2022-10-17T11:21:50.981Z,64.96
2022-10-17T11:22:50.949Z,64.63
2022-10-17T11:23:50.951Z,64.86
2022-10-17T11:24:50.935Z,65.53
2022-10-17T11:25:50.926Z,65.36
2022-10-17T11:26:50.907Z,65.16
2022-10-17T11:27:50.900Z,65.56
2022-10-17T11:28:51.094Z,65.06
2022-10-17T11:29:50.979Z,65.89
2022-10-17T11:30:50.873Z,66.19
2022-10-17T11:31:50.867Z,66.29
2022-10-17T11:32:50.849Z,66.39
2022-10-17T11:33:50.851Z,66.09
2022-10-17T11:34:50.836Z,64.39
2022-10-17T11:35:50.897Z,65.09
2022-10-17T11:36:50.811Z,65.39
2022-10-17T11:37:50.806Z,65.89
2022-10-17T11:38:50.795Z,66.09
2022-10-17T11:39:50.787Z,66.39
2022-10-17T11:40:50.774Z,66.19
2022-10-17T11:41:51.438Z,65.69
2022-10-17T11:42:50.811Z,66.09
2022-10-17T11:43:50.758Z,66.19
2022-10-17T11:44:50.733Z,66.29
2022-10-17T11:45:50.725Z,66.06
2022-10-17T11:46:50.711Z,66.06
2022-10-17T11:47:50.710Z,66.06
2022-10-17T11:48:50.690Z,65.76
2022-10-17T11:49:51.499Z,65.83
2022-10-17T11:52:01.483Z,65.93
2022-10-17T11:52:56.397Z,64.23
2022-10-17T11:53:51.646Z,64.60
2022-10-17T11:54:50.638Z,65.80
2022-10-17T11:55:50.623Z,65.70
2022-10-17T11:56:50.633Z,65.30
2022-10-17T11:57:50.617Z,65.10
2022-10-17T11:58:50.598Z,64.80
2022-10-17T11:59:50.587Z,64.90
2022-10-17T12:00:50.610Z,65.07
2022-10-17T12:01:50.569Z,64.97
2022-10-17T12:02:50.578Z,63.57
2022-10-17T12:03:50.577Z,63.57
2022-10-17T12:04:50.570Z,63.97
2022-10-17T12:05:50.532Z,64.37
2022-10-17T12:06:51.212Z,64.37
2022-10-17T12:07:50.523Z,65.07
2022-10-17T12:08:50.500Z,63.97
2022-10-17T12:09:50.492Z,63.87
2022-10-17T12:10:50.483Z,64.87
2022-10-17T12:11:50.476Z,64.57
2022-10-17T12:12:50.480Z,63.87
2022-10-17T12:13:50.467Z,64.17
2022-10-17T12:14:50.446Z,63.84
2022-10-17T12:15:50.447Z,64.37
2022-10-17T12:16:50.431Z,63.77
2022-10-17T12:17:50.425Z,64.84
2022-10-17T12:18:50.419Z,63.74
2022-10-17T12:19:50.404Z,64.34
2022-10-17T12:20:50.394Z,63.94
2022-10-17T12:21:50.393Z,64.24
2022-10-17T12:22:50.371Z,63.81
2022-10-17T12:23:50.368Z,64.04
2022-10-17T12:24:50.353Z,63.81
2022-10-17T12:25:50.353Z,64.31
2022-10-17T12:26:51.539Z,64.01
2022-10-17T12:27:50.337Z,63.81
2022-10-17T12:28:50.411Z,63.41
2022-10-17T12:29:50.300Z,62.81
2022-10-17T12:30:50.290Z,63.01
2022-10-17T12:31:50.278Z,64.01
2022-10-17T12:33:04.086Z,62.74
2022-10-17T12:33:52.273Z,63.04
2022-10-17T12:34:50.291Z,63.74
2022-10-17T12:35:50.245Z,63.57
2022-10-17T12:36:50.244Z,63.44
2022-10-17T12:37:50.223Z,64.37
2022-10-17T12:38:50.416Z,63.94
2022-10-17T12:39:50.208Z,64.37
2022-10-17T12:40:50.198Z,64.34
2022-10-17T12:41:50.194Z,65.04
2022-10-17T12:42:50.193Z,64.90
2022-10-17T12:44:51.202Z,64.41
2022-10-17T12:45:51.149Z,64.21
2022-10-17T12:46:50.141Z,63.41
2022-10-17T12:47:50.134Z,62.61
2022-10-17T12:48:50.123Z,62.81
2022-10-17T12:49:52.116Z,63.94
2022-10-17T12:50:51.097Z,64.04
2022-10-17T12:51:50.091Z,63.04
2022-10-17T12:53:50.082Z,63.14
2022-10-17T12:55:00.126Z,62.71
2022-10-17T12:55:52.055Z,63.14
2022-10-17T12:56:50.043Z,63.11
2022-10-17T12:57:50.088Z,64.01
2022-10-17T12:58:50.034Z,63.01
2022-10-17T12:59:50.014Z,62.78
2022-10-17T13:01:11.603Z,63.18
2022-10-17T13:01:52.076Z,63.28
2022-10-17T13:03:21.902Z,62.38
2022-10-17T13:03:50.429Z,62.48
2022-10-17T13:04:49.967Z,62.18
2022-10-17T13:05:49.955Z,62.48
2022-10-17T13:06:49.945Z,62.29
2022-10-17T13:07:49.934Z,62.95
2022-10-17T13:08:54.813Z,62.78
2022-10-17T13:09:51.913Z,62.78
2022-10-17T13:10:51.773Z,62.59
2022-10-17T13:11:49.896Z,62.21
2022-10-17T13:12:49.886Z,62.71
2022-10-17T13:13:49.888Z,63.11
2022-10-17T13:14:49.869Z,62.81
2022-10-17T13:15:49.862Z,62.41
2022-10-17T13:16:49.850Z,62.31
2022-10-17T13:17:49.850Z,62.51
2022-10-17T13:18:49.842Z,62.81
2022-10-17T13:19:49.818Z,62.74
2022-10-17T13:20:49.814Z,62.71
2022-10-17T13:21:49.805Z,62.81
2022-10-17T13:22:49.790Z,62.41
2022-10-17T13:23:49.795Z,62.31
2022-10-17T13:24:49.767Z,62.81
2022-10-17T13:25:49.759Z,63.04
2022-10-17T13:26:49.752Z,62.84
2022-10-17T13:27:49.748Z,63.14
2022-10-17T13:28:49.806Z,62.74
2022-10-17T13:29:49.726Z,62.74
2022-10-17T13:30:49.988Z,63.14
2022-10-17T13:31:50.704Z,63.14
2022-10-17T13:32:49.695Z,63.54
2022-10-17T13:33:49.693Z,63.24
2022-10-17T13:34:49.674Z,63.64
2022-10-17T13:36:00.044Z,63.64
2022-10-17T13:36:51.660Z,62.94
2022-10-17T13:37:53.801Z,63.04
2022-10-17T13:38:50.648Z,62.94
2022-10-17T13:39:55.761Z,63.54
2022-10-17T13:40:51.622Z,63.74
2022-10-17T13:41:49.609Z,64.04
2022-10-17T13:42:49.601Z,64.04
2022-10-17T13:43:49.600Z,63.91
2022-10-17T13:44:49.579Z,63.21
2022-10-17T13:45:49.571Z,62.71
2022-10-17T13:46:49.562Z,62.51
2022-10-17T13:47:49.565Z,62.61
2022-10-17T13:48:49.568Z,63.21
2022-10-17T13:49:51.591Z,62.54
2022-10-17T13:50:50.521Z,63.01
2022-10-17T13:51:49.515Z,63.14
2022-10-17T13:52:49.508Z,62.84
2022-10-17T13:53:49.505Z,64.04
2022-10-17T13:54:49.485Z,63.14
2022-10-17T13:56:03.579Z,63.54
2022-10-17T13:56:51.520Z,63.94
2022-10-17T13:57:49.462Z,63.84
2022-10-17T13:58:49.462Z,63.34
2022-10-17T13:59:49.436Z,63.94
2022-10-17T14:00:49.484Z,64.11
2022-10-17T14:01:49.419Z,63.74
2022-10-17T14:02:49.410Z,63.94
2022-10-17T14:03:54.103Z,63.94
2022-10-17T14:05:15.786Z,64.11
2022-10-17T14:05:51.383Z,64.11
2022-10-17T14:06:49.564Z,63.91
2022-10-17T14:08:09.920Z,63.41
2022-10-17T14:08:51.370Z,63.81
2022-10-17T14:09:49.348Z,64.01
2022-10-17T14:10:49.339Z,64.01
2022-10-17T14:11:49.364Z,64.51
2022-10-17T14:12:51.139Z,64.41
2022-10-17T14:13:50.319Z,64.01
2022-10-17T14:15:09.382Z,64.01
2022-10-17T14:15:51.289Z,63.81
2022-10-17T14:16:49.278Z,64.07
2022-10-17T14:17:49.276Z,63.98
2022-10-17T14:18:49.308Z,63.98
2022-10-17T14:20:05.860Z,64.07
2022-10-17T14:21:33.984Z,64.18
2022-10-17T14:21:51.235Z,63.98
2022-10-17T14:23:04.435Z,64.18
2022-10-17T14:23:51.234Z,64.37
2022-10-17T14:24:49.203Z,64.67
2022-10-17T14:25:49.193Z,64.58
2022-10-17T14:26:49.185Z,63.88
2022-10-17T14:27:49.183Z,64.41
2022-10-17T14:28:49.235Z,64.21
2022-10-17T14:29:49.155Z,64.94
2022-10-17T14:30:56.754Z,64.94
2022-10-17T14:31:51.133Z,64.14
2022-10-17T14:32:49.123Z,64.64
2022-10-17T14:33:50.852Z,64.44
2022-10-17T14:34:49.104Z,64.54
2022-10-17T14:35:49.112Z,65.44
2022-10-17T14:36:49.088Z,65.14
2022-10-17T14:37:49.080Z,64.34
2022-10-17T14:38:49.076Z,65.47
2022-10-17T14:39:49.055Z,65.67
2022-10-17T14:40:49.049Z,65.23
2022-10-17T14:41:49.046Z,65.77
2022-10-17T14:42:49.030Z,66.06
2022-10-17T14:43:49.060Z,66.06
2022-10-17T14:44:49.014Z,66.17
2022-10-17T14:45:49.000Z,66.17
2022-10-17T14:46:50.929Z,66.27
2022-10-17T14:47:50.396Z,66.20
2022-10-17T14:48:48.983Z,66.00
2022-10-17T14:49:48.964Z,66.00
2022-10-17T14:50:48.970Z,65.80
2022-10-17T14:51:56.828Z,67.43
2022-10-17T14:52:50.934Z,67.03
2022-10-17T14:53:48.937Z,67.72
2022-10-17T14:54:48.927Z,67.53
2022-10-17T14:55:48.912Z,67.83
2022-10-17T14:56:48.903Z,68.33
2022-10-17T14:57:48.889Z,68.23
2022-10-17T14:58:48.929Z,68.73
2022-10-17T14:59:56.287Z,68.82
2022-10-17T15:00:50.868Z,68.43
2022-10-17T15:01:48.853Z,68.43
2022-10-17T15:02:48.840Z,68.63
2022-10-17T15:03:48.908Z,68.13
2022-10-17T15:04:48.819Z,67.93
2022-10-17T15:05:48.813Z,68.03
2022-10-17T15:06:48.803Z,68.23
2022-10-17T15:07:48.791Z,68.73
2022-10-17T15:08:48.795Z,67.93
2022-10-17T15:09:48.779Z,68.93
2022-10-17T15:10:48.762Z,68.33
2022-10-17T15:11:48.754Z,69.32
2022-10-17T15:12:57.578Z,68.82
2022-10-17T15:13:49.743Z,68.82
2022-10-17T15:14:48.742Z,69.66
2022-10-17T15:15:48.715Z,69.32
2022-10-17T15:16:48.698Z,69.36
2022-10-17T15:17:49.699Z,69.46
2022-10-17T15:18:48.702Z,70.16
2022-10-17T15:19:48.678Z,69.76
2022-10-17T15:20:55.263Z,68.76
2022-10-17T15:21:49.659Z,70.26
2022-10-17T15:22:48.648Z,70.06
2022-10-17T15:23:48.640Z,69.36
2022-10-17T15:24:49.630Z,69.16
2022-10-17T15:25:48.623Z,69.36
2022-10-17T15:26:48.665Z,68.76
2022-10-17T15:27:48.598Z,69.59
2022-10-17T15:28:48.646Z,69.69
2022-10-17T15:29:48.578Z,69.19
2022-10-17T15:30:48.577Z,68.96
2022-10-17T15:31:48.563Z,68.96
2022-10-17T15:32:48.559Z,69.56
2022-10-17T15:33:48.556Z,69.36
2022-10-17T15:34:48.537Z,69.89
2022-10-17T15:35:48.576Z,70.09
2022-10-17T15:36:48.511Z,70.09
2022-10-17T15:37:48.508Z,70.53
2022-10-17T15:38:48.509Z,71.12
2022-10-17T15:39:48.486Z,70.96
2022-10-17T15:40:48.475Z,70.73
2022-10-17T15:41:48.460Z,71.42
2022-10-17T15:42:49.460Z,71.12
2022-10-17T15:43:48.458Z,71.36
2022-10-17T15:44:48.439Z,71.46
2022-10-17T15:45:48.440Z,71.23
2022-10-17T15:46:48.421Z,71.46
2022-10-17T15:47:48.411Z,71.26
2022-10-17T15:48:48.404Z,71.86
2022-10-17T15:49:49.389Z,72.26
2022-10-17T15:50:48.381Z,72.36
2022-10-17T15:51:51.741Z,72.26
2022-10-17T15:52:50.362Z,72.76
2022-10-17T15:53:48.362Z,72.56
2022-10-17T15:54:48.372Z,72.66
2022-10-17T15:55:48.334Z,72.86
2022-10-17T15:56:48.339Z,72.69
2022-10-17T15:57:48.331Z,73.10
2022-10-17T15:58:48.325Z,73.30
2022-10-17T15:59:48.299Z,73.30
2022-10-17T16:00:48.363Z,73.26
2022-10-17T16:01:48.280Z,73.30
2022-10-17T16:02:48.274Z,73.26
2022-10-17T16:03:48.274Z,73.06
2022-10-17T16:04:48.254Z,72.76
2022-10-17T16:05:48.242Z,73.30
2022-10-17T16:06:48.234Z,73.30
2022-10-17T16:07:48.272Z,73.39
2022-10-17T16:08:48.228Z,73.70
2022-10-17T16:09:48.220Z,73.70
2022-10-17T16:10:48.197Z,73.60
2022-10-17T16:11:48.182Z,74.03
2022-10-17T16:12:48.176Z,73.93
2022-10-17T16:13:48.200Z,74.43
2022-10-17T16:14:48.163Z,74.33
2022-10-17T16:15:48.147Z,74.13
2022-10-17T16:16:48.281Z,74.37
2022-10-17T16:17:48.216Z,74.57
2022-10-17T16:18:48.128Z,74.87
2022-10-17T16:19:48.111Z,75.07
2022-10-17T16:20:48.097Z,75.17
2022-10-17T16:21:48.087Z,75.37
2022-10-17T16:22:48.083Z,75.27
2022-10-17T16:23:48.089Z,74.87
2022-10-17T16:24:48.055Z,75.07
2022-10-17T16:25:48.046Z,75.67
2022-10-17T16:26:48.039Z,75.77
2022-10-17T16:27:48.024Z,75.77
2022-10-17T16:28:48.089Z,75.57
2022-10-17T16:29:48.014Z,75.87
2022-10-17T16:30:48.003Z,75.67
2022-10-17T16:31:47.988Z,75.51
2022-10-17T16:32:47.981Z,75.57
2022-10-17T16:33:48.013Z,75.81
2022-10-17T16:34:47.960Z,76.31
2022-10-17T16:35:47.950Z,75.71
2022-10-17T16:36:47.939Z,75.51
2022-10-17T16:37:47.931Z,76.31
2022-10-17T16:38:47.934Z,76.61
2022-10-17T16:39:47.913Z,77.01
2022-10-17T16:40:47.901Z,76.91
2022-10-17T16:41:47.892Z,76.91
2022-10-17T16:42:47.881Z,77.15
2022-10-17T16:43:47.927Z,77.11
2022-10-17T16:44:47.864Z,77.15
2022-10-17T16:45:47.853Z,77.25
2022-10-17T16:46:47.849Z,77.05
2022-10-17T16:47:47.847Z,77.05
2022-10-17T16:48:47.847Z,76.85
2022-10-17T16:49:47.819Z,76.91
2022-10-17T16:50:47.809Z,76.65
2022-10-17T16:51:47.797Z,77.15
2022-10-17T16:52:47.789Z,77.15
2022-10-17T16:53:47.804Z,77.15
2022-10-17T16:54:47.771Z,77.35
2022-10-17T16:55:47.760Z,77.45
2022-10-17T16:56:47.751Z,77.35
2022-10-17T16:57:47.742Z,77.45
2022-10-17T16:58:47.741Z,77.35
2022-10-17T16:59:47.720Z,77.65
2022-10-17T17:00:47.751Z,77.65
2022-10-17T17:01:47.691Z,77.65
2022-10-17T17:02:47.733Z,77.55
2022-10-17T17:03:47.689Z,77.65
2022-10-17T17:04:47.666Z,78.05
2022-10-17T17:05:47.727Z,77.59
2022-10-17T17:06:47.653Z,77.85
2022-10-17T17:07:47.638Z,77.69
2022-10-17T17:08:47.642Z,77.99
2022-10-17T17:09:47.617Z,78.19
2022-10-17T17:10:47.612Z,77.79
2022-10-17T17:11:47.597Z,78.09
2022-10-17T17:12:47.591Z,77.89
2022-10-17T17:13:47.601Z,78.19
2022-10-17T17:14:47.576Z,78.49
2022-10-17T17:15:47.564Z,78.49
2022-10-17T17:16:47.551Z,78.19
2022-10-17T17:17:51.464Z,78.39
2022-10-17T17:18:49.548Z,78.42
2022-10-17T17:19:47.534Z,78.53
2022-10-17T17:20:47.516Z,78.69
2022-10-17T17:21:47.505Z,79.49
2022-10-17T17:22:47.498Z,79.53
2022-10-17T17:23:47.503Z,79.13
2022-10-17T17:25:47.528Z,79.33
2022-10-17T17:26:47.455Z,78.73
2022-10-17T17:27:47.449Z,79.03
2022-10-17T17:28:47.481Z,78.83
2022-10-17T17:29:47.445Z,79.43
2022-10-17T17:30:47.418Z,79.63
2022-10-17T17:31:47.411Z,79.67
2022-10-17T17:32:47.399Z,79.57
2022-10-17T17:33:47.435Z,79.53
2022-10-17T17:34:47.388Z,79.57
2022-10-17T17:35:47.367Z,79.87
2022-10-17T17:36:47.371Z,79.87
2022-10-17T17:37:47.353Z,79.97
2022-10-17T17:38:47.344Z,79.97
2022-10-17T17:39:47.343Z,80.41
2022-10-17T17:40:50.588Z,80.17
2022-10-17T17:41:48.312Z,80.41
2022-10-17T17:42:47.334Z,80.41
2022-10-17T17:43:47.298Z,80.31
2022-10-17T17:44:47.296Z,80.41
2022-10-17T17:45:47.274Z,81.12
2022-10-17T17:46:47.264Z,80.91
2022-10-17T17:47:47.254Z,81.12
2022-10-17T17:48:47.357Z,81.41
2022-10-17T17:49:47.389Z,81.41
2022-10-17T17:50:47.218Z,81.65
2022-10-17T17:51:47.219Z,81.65
2022-10-17T17:52:47.199Z,82.06
2022-10-17T17:53:47.197Z,81.85
2022-10-17T17:54:47.201Z,81.76
2022-10-17T17:55:47.171Z,82.26
2022-10-17T17:56:47.166Z,82.36
2022-10-17T17:57:47.159Z,82.46
2022-10-17T17:58:47.144Z,82.60
2022-10-17T17:59:47.151Z,82.46
2022-10-17T18:00:47.131Z,82.70
2022-10-17T18:01:47.139Z,82.66
2022-10-17T18:02:47.112Z,82.50
2022-10-17T18:03:47.117Z,82.90
2022-10-17T18:04:47.106Z,82.66
2022-10-17T18:05:47.080Z,82.90
2022-10-17T18:06:47.074Z,82.60
2022-10-17T18:07:47.067Z,82.90
2022-10-17T18:08:47.052Z,83.20
2022-10-17T18:09:47.055Z,83.00
2022-10-17T18:10:47.034Z,83.11
2022-10-17T18:11:47.022Z,83.26
2022-10-17T18:12:47.027Z,83.40
2022-10-17T18:13:47.005Z,82.97
2022-10-17T18:14:47.005Z,83.11
2022-10-17T18:15:47.014Z,82.90
2022-10-17T18:16:46.972Z,83.00
2022-10-17T18:17:46.965Z,83.20
2022-10-17T18:18:46.955Z,83.11
2022-10-17T18:19:46.952Z,83.20
2022-10-17T18:20:46.936Z,83.31
2022-10-17T18:21:46.924Z,83.00
2022-10-17T18:22:46.912Z,83.40
2022-10-17T18:23:46.903Z,83.31
2022-10-17T18:24:46.905Z,83.81
2022-10-17T18:25:46.885Z,83.91
2022-10-17T18:26:46.892Z,83.91
2022-10-17T18:27:46.863Z,83.91
2022-10-17T18:28:46.850Z,83.81
2022-10-17T18:29:46.855Z,83.81
2022-10-17T18:30:46.833Z,83.51
2022-10-17T18:31:46.829Z,83.71
2022-10-17T18:32:46.827Z,83.61
2022-10-17T18:33:46.804Z,83.51
2022-10-17T18:34:46.803Z,83.51
2022-10-17T18:35:46.784Z,83.31
2022-10-17T18:36:46.777Z,83.51
2022-10-17T18:37:46.774Z,83.31
2022-10-17T18:38:46.759Z,83.31
2022-10-17T18:39:46.760Z,84.01
2022-10-17T18:40:49.975Z,83.91
2022-10-17T18:41:46.741Z,83.51
2022-10-17T18:42:47.713Z,83.31
2022-10-17T18:43:46.711Z,83.31
2022-10-17T18:44:46.711Z,83.31
2022-10-17T18:45:46.691Z,83.71
2022-10-17T18:46:46.687Z,84.11
2022-10-17T18:47:46.671Z,83.91
2022-10-17T18:48:46.662Z,83.71
2022-10-17T18:49:46.663Z,83.84
2022-10-17T18:50:46.644Z,84.25
2022-10-17T18:51:46.631Z,84.15
2022-10-17T18:52:46.626Z,84.65
2022-10-17T18:53:46.617Z,84.65
2022-10-17T18:54:46.608Z,84.45
2022-10-17T18:56:47.579Z,84.85
2022-10-17T18:57:46.572Z,84.81
2022-10-17T18:58:46.562Z,85.05
2022-10-17T18:59:46.563Z,84.85
2022-10-17T19:00:46.543Z,84.65
2022-10-17T19:01:46.588Z,84.85
2022-10-17T19:02:46.524Z,84.65
2022-10-17T19:03:46.514Z,85.56
2022-10-17T19:05:18.425Z,85.36
2022-10-17T19:05:46.498Z,85.25
2022-10-17T19:06:46.489Z,84.95
2022-10-17T19:07:46.477Z,85.16
2022-10-17T19:08:46.480Z,85.36
2022-10-17T19:09:46.446Z,85.66
2022-10-17T19:10:47.455Z,85.70
2022-10-17T19:11:46.443Z,85.46
2022-10-17T19:12:46.421Z,85.56
2022-10-17T19:14:47.405Z,85.50
2022-10-17T19:15:46.410Z,85.56
2022-10-17T19:16:46.412Z,85.56
2022-10-17T19:17:46.379Z,85.60
2022-10-17T19:18:46.379Z,85.60
2022-10-17T19:19:46.395Z,85.56
2022-10-17T19:20:46.352Z,84.95
2022-10-17T19:21:46.346Z,85.25
2022-10-17T19:22:46.371Z,85.66
2022-10-17T19:23:46.333Z,85.20
2022-10-17T19:24:46.314Z,85.50
2022-10-17T19:25:46.299Z,85.80
2022-10-17T19:26:46.293Z,86.00
2022-10-17T19:27:46.281Z,86.30
2022-10-17T19:28:46.300Z,86.41
2022-10-17T19:29:46.259Z,86.95
2022-10-17T19:30:46.253Z,87.60
2022-10-17T19:31:46.275Z,87.60
2022-10-17T19:32:46.234Z,87.65
2022-10-17T19:33:46.234Z,87.05
2022-10-17T19:34:46.215Z,87.35
2022-10-17T19:35:46.201Z,87.35
2022-10-17T19:36:46.191Z,87.65
2022-10-17T19:37:46.245Z,87.05
2022-10-17T19:38:46.181Z,87.15
2022-10-17T19:39:46.157Z,87.05
2022-10-17T19:40:46.221Z,86.85
2022-10-17T19:41:46.141Z,86.75
2022-10-17T19:42:46.129Z,86.85
2022-10-17T19:43:46.167Z,86.75
2022-10-17T19:44:46.112Z,86.65
2022-10-17T19:45:46.103Z,87.25
2022-10-17T19:46:46.092Z,87.25
2022-10-17T19:47:46.086Z,87.05
2022-10-17T19:48:46.090Z,87.31
2022-10-17T19:49:49.852Z,87.35
2022-10-17T19:50:47.055Z,87.35
2022-10-17T19:51:46.056Z,87.35
2022-10-17T19:52:46.037Z,86.44
2022-10-17T19:53:46.038Z,87.25
2022-10-17T19:54:46.015Z,87.31
2022-10-17T19:55:46.007Z,86.55
2022-10-17T19:56:45.994Z,86.95
2022-10-17T19:57:45.996Z,86.75
2022-10-17T19:58:45.985Z,86.75
2022-10-17T19:59:45.970Z,86.65
2022-10-17T20:00:45.961Z,86.85
2022-10-17T20:01:46.021Z,86.85
2022-10-17T20:02:45.930Z,86.65
2022-10-17T20:03:45.936Z,86.55
2022-10-17T20:04:54.546Z,87.25
2022-10-17T20:05:46.909Z,86.75
2022-10-17T20:06:45.897Z,86.95
2022-10-17T20:07:45.890Z,86.75
2022-10-17T20:08:45.887Z,86.75
2022-10-17T20:09:45.871Z,86.75
2022-10-17T20:10:45.859Z,87.15
2022-10-17T20:11:45.855Z,86.65
2022-10-17T20:12:45.839Z,87.05
2022-10-17T20:13:45.840Z,87.65
2022-10-17T20:14:45.825Z,87.15
2022-10-17T20:15:45.833Z,87.45
2022-10-17T20:16:45.799Z,87.65
2022-10-17T20:17:45.792Z,87.15
2022-10-17T20:18:45.794Z,86.85
2022-10-17T20:19:45.773Z,86.75
2022-10-17T20:20:45.761Z,87.55
2022-10-17T20:21:45.766Z,87.15
2022-10-17T20:22:45.751Z,87.45
2022-10-17T20:23:45.748Z,87.65
2022-10-17T20:24:45.725Z,87.65
2022-10-17T20:25:45.714Z,86.95
2022-10-17T20:26:45.709Z,86.75
2022-10-17T20:27:45.695Z,87.55
2022-10-17T20:28:45.759Z,87.25
2022-10-17T20:29:45.676Z,87.55
2022-10-17T20:30:45.667Z,87.80
2022-10-17T20:31:45.653Z,87.45
2022-10-17T20:32:45.647Z,87.65
2022-10-17T20:33:45.646Z,87.15
2022-10-17T20:34:45.628Z,87.45
2022-10-17T20:36:46.608Z,87.15
2022-10-17T20:37:45.591Z,87.25
2022-10-17T20:38:45.598Z,87.55
2022-10-17T20:39:45.571Z,87.45
2022-10-17T20:40:45.566Z,87.25
2022-10-17T20:41:45.644Z,87.65
2022-10-17T20:42:45.550Z,87.90
2022-10-17T20:43:45.550Z,87.70
2022-10-17T20:45:51.346Z,87.96
2022-10-17T20:47:00.647Z,87.80
2022-10-17T20:47:51.563Z,88.26
2022-10-17T20:48:46.505Z,88.46
2022-10-17T20:49:45.483Z,88.81
2022-10-17T20:50:45.474Z,88.81
2022-10-17T20:51:45.466Z,88.26
2022-10-17T20:52:45.454Z,87.90
2022-10-17T20:53:45.500Z,87.96
2022-10-17T20:54:45.433Z,87.96
2022-10-17T20:55:45.427Z,88.10
2022-10-17T20:56:45.412Z,88.00
2022-10-17T20:57:45.405Z,88.00
2022-10-17T20:58:45.410Z,88.50
2022-10-17T20:59:45.379Z,88.90
2022-10-17T21:00:45.381Z,88.81
2022-10-17T21:01:45.567Z,88.81
2022-10-17T21:02:45.427Z,88.70
2022-10-17T21:03:46.628Z,88.81
2022-10-17T21:04:47.276Z,88.81
2022-10-17T21:05:46.327Z,88.81
2022-10-17T21:06:45.314Z,88.81
2022-10-17T21:07:45.304Z,88.70
2022-10-17T21:08:45.308Z,88.81
2022-10-17T21:09:45.292Z,88.81
2022-10-17T21:10:45.276Z,88.81
2022-10-17T21:11:45.268Z,88.81
2022-10-17T21:12:53.841Z,88.70
2022-10-17T21:13:47.256Z,88.81
2022-10-17T21:14:45.235Z,88.81
2022-10-17T21:15:45.227Z,88.90
2022-10-17T21:16:45.219Z,88.81
2022-10-17T21:17:45.207Z,88.70
2022-10-17T21:18:45.216Z,88.60
2022-10-17T21:19:45.180Z,88.70
2022-10-17T21:20:45.274Z,88.60
2022-10-17T21:21:45.168Z,88.70
2022-10-17T21:22:45.154Z,88.60
2022-10-17T21:23:45.176Z,88.81
2022-10-17T21:24:45.140Z,88.85
2022-10-17T21:25:45.122Z,87.49
2022-10-17T21:26:45.133Z,88.40
2022-10-17T21:27:45.106Z,89.01
2022-10-17T21:28:45.147Z,88.81
2022-10-17T21:29:45.102Z,88.81
2022-10-17T21:30:45.076Z,88.81
2022-10-17T21:31:45.074Z,88.10
2022-10-17T21:32:51.469Z,88.81
2022-10-17T21:33:47.099Z,88.70
2022-10-17T21:34:45.035Z,88.60
2022-10-17T21:35:45.048Z,88.65
2022-10-17T21:36:45.014Z,88.65
2022-10-17T21:37:45.028Z,88.60
2022-10-17T21:38:44.996Z,88.70
2022-10-17T21:39:44.997Z,88.65
2022-10-17T21:40:44.980Z,88.50
2022-10-17T21:41:44.973Z,88.50
2022-10-17T21:42:44.986Z,88.40
2022-10-17T21:43:44.965Z,88.30
2022-10-17T21:44:44.953Z,89.25
2022-10-17T21:45:44.933Z,88.40
2022-10-17T21:46:44.920Z,89.21
2022-10-17T21:47:49.763Z,88.34
2022-10-17T21:48:46.902Z,89.05
2022-10-17T21:49:44.901Z,88.65
2022-10-17T21:50:44.880Z,88.45
2022-10-17T21:51:44.870Z,89.35
2022-10-17T21:52:44.859Z,89.15
2022-10-17T21:53:44.853Z,89.25
2022-10-17T21:54:44.856Z,88.95
2022-10-17T21:55:44.834Z,89.41
2022-10-17T21:56:44.823Z,89.01
2022-10-17T21:57:44.816Z,88.50
2022-10-17T21:58:44.807Z,88.60
2022-10-17T21:59:44.806Z,88.65
2022-10-17T22:00:44.784Z,88.70
2022-10-17T22:01:44.815Z,88.70
2022-10-17T22:02:44.760Z,88.70
2022-10-17T22:03:46.783Z,88.81
2022-10-17T22:04:44.750Z,89.11
2022-10-17T22:05:44.734Z,87.90
2022-10-17T22:06:44.723Z,87.90
2022-10-17T22:07:44.713Z,88.00
2022-10-17T22:08:44.715Z,88.60
2022-10-17T22:09:44.695Z,88.50
2022-10-17T22:10:44.759Z,88.70
2022-10-17T22:11:44.671Z,88.70
2022-10-17T22:12:44.664Z,87.70
2022-10-17T22:13:44.657Z,88.40
2022-10-17T22:14:44.677Z,88.00
2022-10-17T22:15:44.636Z,87.70
2022-10-17T22:16:44.627Z,88.40
2022-10-17T22:17:44.618Z,88.81
2022-10-17T22:18:44.628Z,88.60
2022-10-17T22:19:44.598Z,88.60
2022-10-17T22:20:44.624Z,88.81
2022-10-17T22:21:44.572Z,88.81
2022-10-17T22:22:44.574Z,88.70
2022-10-17T22:23:44.555Z,88.70
2022-10-17T22:24:44.551Z,88.90
2022-10-17T22:25:45.539Z,88.70
2022-10-17T22:26:44.542Z,89.25
2022-10-17T22:27:44.598Z,88.95
2022-10-17T22:28:44.551Z,89.11
2022-10-17T22:29:44.515Z,88.20
2022-10-17T22:30:44.548Z,89.21
2022-10-17T22:31:44.490Z,88.30
2022-10-17T22:32:44.475Z,88.50
2022-10-17T22:33:44.462Z,88.81
2022-10-17T22:34:44.464Z,88.70
2022-10-17T22:35:44.445Z,88.81
2022-10-17T22:36:44.434Z,88.70
2022-10-17T22:37:44.421Z,88.46
2022-10-17T22:38:44.412Z,88.90
2022-10-17T22:39:44.412Z,88.10
2022-10-17T22:40:44.400Z,87.85
2022-10-17T22:41:44.381Z,87.55
2022-10-17T22:42:44.370Z,87.70
2022-10-17T22:43:44.372Z,88.76
2022-10-17T22:44:44.360Z,88.66
2022-10-17T22:45:44.338Z,89.01
2022-10-17T22:46:44.333Z,88.76
2022-10-17T22:47:44.321Z,88.90
2022-10-17T22:48:44.316Z,88.66
2022-10-17T22:49:44.314Z,88.66
2022-10-17T22:50:44.297Z,88.30
2022-10-17T22:51:44.283Z,88.30
2022-10-17T22:52:44.275Z,88.30
2022-10-17T22:53:44.263Z,88.60
2022-10-17T22:54:44.267Z,88.30
2022-10-17T22:55:44.245Z,88.30
2022-10-17T22:56:44.242Z,88.30
2022-10-17T22:57:44.237Z,88.50
2022-10-17T22:58:44.223Z,88.20
2022-10-17T22:59:44.219Z,88.40
2022-10-17T23:00:44.202Z,88.30
2022-10-17T23:01:44.232Z,89.11
2022-10-17T23:02:44.180Z,89.21
2022-10-17T23:03:44.176Z,88.90
2022-10-17T23:04:44.173Z,89.31
2022-10-17T23:05:44.152Z,88.85
2022-10-17T23:06:44.139Z,88.81
2022-10-17T23:07:44.130Z,88.81
2022-10-17T23:08:44.121Z,89.01
2022-10-17T23:09:44.123Z,88.90
2022-10-17T23:10:44.104Z,89.21
2022-10-17T23:11:44.098Z,89.51
2022-10-17T23:12:44.085Z,89.51
2022-10-17T23:13:44.078Z,89.71
2022-10-17T23:14:44.077Z,89.41
2022-10-17T23:15:44.053Z,90.11
2022-10-17T23:16:44.043Z,89.61
2022-10-17T23:17:44.039Z,89.51
2022-10-17T23:18:44.025Z,89.71
2022-10-17T23:19:44.025Z,90.32
2022-10-17T23:20:44.005Z,90.11
2022-10-17T23:21:43.994Z,90.32
2022-10-17T23:22:43.990Z,89.91
2022-10-17T23:23:43.971Z,90.32
2022-10-17T23:24:43.978Z,91.02
2022-10-17T23:25:43.952Z,91.13
2022-10-17T23:26:43.945Z,90.62
2022-10-17T23:27:43.934Z,90.72
2022-10-17T23:28:43.969Z,90.42
2022-10-17T23:29:43.926Z,90.86
2022-10-17T23:30:43.906Z,90.82
2022-10-17T23:31:43.897Z,90.82
2022-10-17T23:32:43.890Z,90.92
2022-10-17T23:33:43.878Z,91.22
2022-10-17T23:34:43.874Z,90.92
2022-10-17T23:35:43.850Z,91.37
2022-10-17T23:36:43.846Z,91.67
2022-10-17T23:37:43.837Z,91.53
2022-10-17T23:38:43.825Z,91.53
2022-10-17T23:39:43.832Z,91.33